sensor_id;sensor_type;location;lat;lon;timestamp;P1;durP1;ratioP1;P2;durP2;ratioP2
64885;SDS011;51514;52.206;5.114;2024-02-23T00:02:13;12.48;;;3.35;;
64885;SDS011;51514;52.206;5.114;2024-02-23T00:04:38;12.90;;;3.40;;
64885;SDS011;51514;52.206;5.114;2024-02-23T00:07:04;15.63;;;3.88;;
64885;SDS011;51514;52.206;5.114;2024-02-23T00:09:29;15.27;;;3.65;;
64885;SDS011;51514;52.206;5.114;2024-02-23T00:11:55;10.20;;;4.32;;
64885;SDS011;51514;52.206;5.114;2024-02-23T00:14:20;13.65;;;4.65;;
64885;SDS011;51514;52.206;5.114;2024-02-23T00:16:46;19.17;;;4.10;;
64885;SDS011;51514;52.206;5.114;2024-02-23T00:19:11;16.27;;;4.55;;
64885;SDS011;51514;52.206;5.114;2024-02-23T00:21:37;12.23;;;3.30;;
64885;SDS011;51514;52.206;5.114;2024-02-23T00:24:07;13.00;;;3.20;;
64885;SDS011;51514;52.206;5.114;2024-02-23T00:26:32;13.57;;;3.25;;
64885;SDS011;51514;52.206;5.114;2024-02-23T00:28:58;13.65;;;3.53;;
64885;SDS011;51514;52.206;5.114;2024-02-23T00:31:23;17.58;;;4.55;;
64885;SDS011;51514;52.206;5.114;2024-02-23T00:33:49;31.15;;;7.18;;
64885;SDS011;51514;52.206;5.114;2024-02-23T00:36:14;17.38;;;3.95;;
64885;SDS011;51514;52.206;5.114;2024-02-23T00:38:39;12.00;;;3.95;;
64885;SDS011;51514;52.206;5.114;2024-02-23T00:41:05;18.75;;;4.05;;
64885;SDS011;51514;52.206;5.114;2024-02-23T00:43:37;14.98;;;3.85;;
64885;SDS011;51514;52.206;5.114;2024-02-23T00:46:03;13.73;;;3.70;;
64885;SDS011;51514;52.206;5.114;2024-02-23T00:48:29;18.27;;;4.18;;
64885;SDS011;51514;52.206;5.114;2024-02-23T00:50:54;20.27;;;3.95;;
64885;SDS011;51514;52.206;5.114;2024-02-23T00:53:20;13.88;;;4.38;;
64885;SDS011;51514;52.206;5.114;2024-02-23T00:55:45;12.35;;;3.17;;
64885;SDS011;51514;52.206;5.114;2024-02-23T00:58:11;11.38;;;3.33;;
64885;SDS011;51514;52.206;5.114;2024-02-23T01:00:36;9.43;;;3.88;;
64885;SDS011;51514;52.206;5.114;2024-02-23T01:03:01;10.02;;;3.33;;
64885;SDS011;51514;52.206;5.114;2024-02-23T01:05:27;12.32;;;3.58;;
64885;SDS011;51514;52.206;5.114;2024-02-23T01:07:52;13.63;;;3.67;;
64885;SDS011;51514;52.206;5.114;2024-02-23T01:10:17;13.32;;;3.55;;
64885;SDS011;51514;52.206;5.114;2024-02-23T01:12:43;15.13;;;3.92;;
64885;SDS011;51514;52.206;5.114;2024-02-23T01:15:08;12.43;;;3.45;;
64885;SDS011;51514;52.206;5.114;2024-02-23T01:17:34;19.92;;;3.78;;
64885;SDS011;51514;52.206;5.114;2024-02-23T01:19:59;13.85;;;3.45;;
64885;SDS011;51514;52.206;5.114;2024-02-23T01:22:25;17.63;;;4.20;;
64885;SDS011;51514;52.206;5.114;2024-02-23T01:24:50;16.88;;;4.53;;
64885;SDS011;51514;52.206;5.114;2024-02-23T01:27:16;13.15;;;3.75;;
64885;SDS011;51514;52.206;5.114;2024-02-23T01:29:41;11.75;;;3.03;;
64885;SDS011;51514;52.206;5.114;2024-02-23T01:32:07;8.43;;;2.50;;
64885;SDS011;51514;52.206;5.114;2024-02-23T01:34:32;11.85;;;2.63;;
64885;SDS011;51514;52.206;5.114;2024-02-23T01:36:58;9.73;;;3.00;;
64885;SDS011;51514;52.206;5.114;2024-02-23T01:39:24;9.00;;;3.20;;
64885;SDS011;51514;52.206;5.114;2024-02-23T01:41:49;13.93;;;3.45;;
64885;SDS011;51514;52.206;5.114;2024-02-23T01:44:15;14.07;;;3.38;;
64885;SDS011;51514;52.206;5.114;2024-02-23T01:46:42;10.90;;;2.97;;
64885;SDS011;51514;52.206;5.114;2024-02-23T01:49:08;10.20;;;3.20;;
64885;SDS011;51514;52.206;5.114;2024-02-23T01:51:34;12.98;;;2.65;;
64885;SDS011;51514;52.206;5.114;2024-02-23T01:54:00;10.20;;;2.90;;
64885;SDS011;51514;52.206;5.114;2024-02-23T01:56:27;10.00;;;3.40;;
64885;SDS011;51514;52.206;5.114;2024-02-23T01:58:52;13.02;;;3.40;;
64885;SDS011;51514;52.206;5.114;2024-02-23T02:01:19;10.45;;;3.20;;
64885;SDS011;51514;52.206;5.114;2024-02-23T02:03:44;8.20;;;2.90;;
64885;SDS011;51514;52.206;5.114;2024-02-23T02:06:09;10.65;;;2.92;;
64885;SDS011;51514;52.206;5.114;2024-02-23T02:08:35;4.40;;;2.45;;
64885;SDS011;51514;52.206;5.114;2024-02-23T02:11:01;6.25;;;1.98;;
64885;SDS011;51514;52.206;5.114;2024-02-23T02:13:29;14.85;;;3.42;;
64885;SDS011;51514;52.206;5.114;2024-02-23T02:15:55;6.95;;;2.20;;
64885;SDS011;51514;52.206;5.114;2024-02-23T02:18:23;12.93;;;2.90;;
64885;SDS011;51514;52.206;5.114;2024-02-23T02:20:53;9.10;;;3.17;;
64885;SDS011;51514;52.206;5.114;2024-02-23T02:23:24;10.07;;;3.00;;
64885;SDS011;51514;52.206;5.114;2024-02-23T02:25:54;9.88;;;2.60;;
64885;SDS011;51514;52.206;5.114;2024-02-23T02:28:20;13.07;;;3.03;;
64885;SDS011;51514;52.206;5.114;2024-02-23T02:30:46;9.52;;;3.72;;
64885;SDS011;51514;52.206;5.114;2024-02-23T02:33:11;11.55;;;3.30;;
64885;SDS011;51514;52.206;5.114;2024-02-23T02:35:36;13.73;;;3.83;;
64885;SDS011;51514;52.206;5.114;2024-02-23T02:38:02;13.68;;;3.30;;
64885;SDS011;51514;52.206;5.114;2024-02-23T02:40:27;11.60;;;2.70;;
64885;SDS011;51514;52.206;5.114;2024-02-23T02:42:53;17.95;;;3.85;;
64885;SDS011;51514;52.206;5.114;2024-02-23T02:45:18;12.13;;;2.90;;
64885;SDS011;51514;52.206;5.114;2024-02-23T02:47:43;16.27;;;4.35;;
64885;SDS011;51514;52.206;5.114;2024-02-23T02:50:09;10.27;;;3.30;;
64885;SDS011;51514;52.206;5.114;2024-02-23T02:52:34;13.75;;;3.10;;
64885;SDS011;51514;52.206;5.114;2024-02-23T02:54:59;12.23;;;4.13;;
64885;SDS011;51514;52.206;5.114;2024-02-23T02:57:25;11.57;;;3.28;;
64885;SDS011;51514;52.206;5.114;2024-02-23T02:59:50;19.58;;;3.83;;
64885;SDS011;51514;52.206;5.114;2024-02-23T03:02:16;9.85;;;3.00;;
64885;SDS011;51514;52.206;5.114;2024-02-23T03:04:48;13.48;;;3.50;;
64885;SDS011;51514;52.206;5.114;2024-02-23T03:07:16;7.18;;;2.83;;
64885;SDS011;51514;52.206;5.114;2024-02-23T03:09:41;8.13;;;2.88;;
64885;SDS011;51514;52.206;5.114;2024-02-23T03:12:07;11.57;;;3.15;;
64885;SDS011;51514;52.206;5.114;2024-02-23T03:14:33;14.90;;;3.30;;
64885;SDS011;51514;52.206;5.114;2024-02-23T03:16:59;12.48;;;2.85;;
64885;SDS011;51514;52.206;5.114;2024-02-23T03:19:24;9.05;;;2.95;;
64885;SDS011;51514;52.206;5.114;2024-02-23T03:21:51;8.07;;;3.53;;
64885;SDS011;51514;52.206;5.114;2024-02-23T03:24:16;8.55;;;3.65;;
64885;SDS011;51514;52.206;5.114;2024-02-23T03:26:42;12.40;;;3.70;;
64885;SDS011;51514;52.206;5.114;2024-02-23T03:29:07;15.20;;;4.07;;
64885;SDS011;51514;52.206;5.114;2024-02-23T03:31:34;14.05;;;3.65;;
64885;SDS011;51514;52.206;5.114;2024-02-23T03:33:59;10.85;;;3.22;;
64885;SDS011;51514;52.206;5.114;2024-02-23T03:36:25;13.38;;;3.33;;
64885;SDS011;51514;52.206;5.114;2024-02-23T03:38:50;10.32;;;3.00;;
64885;SDS011;51514;52.206;5.114;2024-02-23T03:41:15;14.85;;;3.33;;
64885;SDS011;51514;52.206;5.114;2024-02-23T03:43:41;12.65;;;4.00;;
64885;SDS011;51514;52.206;5.114;2024-02-23T03:46:06;10.35;;;2.90;;
64885;SDS011;51514;52.206;5.114;2024-02-23T03:48:31;17.50;;;3.83;;
64885;SDS011;51514;52.206;5.114;2024-02-23T03:50:57;11.32;;;3.67;;
64885;SDS011;51514;52.206;5.114;2024-02-23T03:53:23;11.30;;;3.33;;
64885;SDS011;51514;52.206;5.114;2024-02-23T03:55:48;8.85;;;2.88;;
64885;SDS011;51514;52.206;5.114;2024-02-23T03:58:13;10.07;;;2.97;;
64885;SDS011;51514;52.206;5.114;2024-02-23T04:00:39;14.15;;;4.63;;
64885;SDS011;51514;52.206;5.114;2024-02-23T04:03:04;11.75;;;3.78;;
64885;SDS011;51514;52.206;5.114;2024-02-23T04:05:29;14.45;;;3.60;;
64885;SDS011;51514;52.206;5.114;2024-02-23T04:07:55;8.13;;;3.75;;
64885;SDS011;51514;52.206;5.114;2024-02-23T04:10:20;12.73;;;3.30;;
64885;SDS011;51514;52.206;5.114;2024-02-23T04:12:46;12.70;;;4.45;;
64885;SDS011;51514;52.206;5.114;2024-02-23T04:15:12;15.65;;;3.83;;
64885;SDS011;51514;52.206;5.114;2024-02-23T04:17:37;10.43;;;3.15;;
64885;SDS011;51514;52.206;5.114;2024-02-23T04:20:05;8.48;;;3.35;;
64885;SDS011;51514;52.206;5.114;2024-02-23T04:22:32;11.48;;;3.10;;
64885;SDS011;51514;52.206;5.114;2024-02-23T04:24:57;10.85;;;3.25;;
64885;SDS011;51514;52.206;5.114;2024-02-23T04:27:23;10.45;;;2.97;;
64885;SDS011;51514;52.206;5.114;2024-02-23T04:29:48;9.85;;;3.10;;
64885;SDS011;51514;52.206;5.114;2024-02-23T04:32:14;9.43;;;3.65;;
64885;SDS011;51514;52.206;5.114;2024-02-23T04:34:39;13.50;;;3.22;;
64885;SDS011;51514;52.206;5.114;2024-02-23T04:37:06;9.48;;;3.38;;
64885;SDS011;51514;52.206;5.114;2024-02-23T04:39:31;12.88;;;3.67;;
64885;SDS011;51514;52.206;5.114;2024-02-23T04:41:57;15.68;;;3.83;;
64885;SDS011;51514;52.206;5.114;2024-02-23T04:44:23;10.82;;;3.25;;
64885;SDS011;51514;52.206;5.114;2024-02-23T04:46:48;8.98;;;3.58;;
64885;SDS011;51514;52.206;5.114;2024-02-23T04:49:14;10.77;;;3.33;;
64885;SDS011;51514;52.206;5.114;2024-02-23T04:51:39;10.30;;;3.60;;
64885;SDS011;51514;52.206;5.114;2024-02-23T04:54:04;12.65;;;3.97;;
64885;SDS011;51514;52.206;5.114;2024-02-23T04:56:30;13.27;;;3.67;;
64885;SDS011;51514;52.206;5.114;2024-02-23T04:58:55;12.50;;;3.80;;
64885;SDS011;51514;52.206;5.114;2024-02-23T05:01:20;18.27;;;4.80;;
64885;SDS011;51514;52.206;5.114;2024-02-23T05:03:46;10.32;;;3.55;;
64885;SDS011;51514;52.206;5.114;2024-02-23T05:06:11;13.35;;;3.40;;
64885;SDS011;51514;52.206;5.114;2024-02-23T05:08:37;15.27;;;5.10;;
64885;SDS011;51514;52.206;5.114;2024-02-23T05:11:03;16.92;;;4.50;;
64885;SDS011;51514;52.206;5.114;2024-02-23T05:13:29;11.52;;;4.13;;
64885;SDS011;51514;52.206;5.114;2024-02-23T05:15:55;13.35;;;4.47;;
64885;SDS011;51514;52.206;5.114;2024-02-23T05:18:21;17.42;;;5.25;;
64885;SDS011;51514;52.206;5.114;2024-02-23T05:20:46;12.68;;;4.30;;
64885;SDS011;51514;52.206;5.114;2024-02-23T05:23:11;20.05;;;4.88;;
64885;SDS011;51514;52.206;5.114;2024-02-23T05:25:37;12.35;;;3.95;;
64885;SDS011;51514;52.206;5.114;2024-02-23T05:28:02;15.00;;;4.85;;
64885;SDS011;51514;52.206;5.114;2024-02-23T05:30:28;12.50;;;4.90;;
64885;SDS011;51514;52.206;5.114;2024-02-23T05:32:56;13.77;;;4.60;;
64885;SDS011;51514;52.206;5.114;2024-02-23T05:35:22;11.10;;;5.22;;
64885;SDS011;51514;52.206;5.114;2024-02-23T05:37:47;9.75;;;4.32;;
64885;SDS011;51514;52.206;5.114;2024-02-23T05:40:13;13.15;;;4.57;;
64885;SDS011;51514;52.206;5.114;2024-02-23T05:42:38;11.32;;;4.53;;
64885;SDS011;51514;52.206;5.114;2024-02-23T05:45:04;10.10;;;4.13;;
64885;SDS011;51514;52.206;5.114;2024-02-23T05:47:33;10.50;;;5.63;;
64885;SDS011;51514;52.206;5.114;2024-02-23T05:50:02;10.40;;;4.88;;
64885;SDS011;51514;52.206;5.114;2024-02-23T05:52:29;10.60;;;4.70;;
64885;SDS011;51514;52.206;5.114;2024-02-23T05:54:56;11.30;;;5.03;;
64885;SDS011;51514;52.206;5.114;2024-02-23T05:57:21;9.57;;;4.55;;
64885;SDS011;51514;52.206;5.114;2024-02-23T05:59:47;12.20;;;4.85;;
64885;SDS011;51514;52.206;5.114;2024-02-23T06:02:12;14.45;;;5.45;;
64885;SDS011;51514;52.206;5.114;2024-02-23T06:04:39;15.23;;;5.25;;
64885;SDS011;51514;52.206;5.114;2024-02-23T06:07:05;11.05;;;5.43;;
64885;SDS011;51514;52.206;5.114;2024-02-23T06:09:30;9.15;;;5.55;;
64885;SDS011;51514;52.206;5.114;2024-02-23T06:11:56;12.88;;;6.03;;
64885;SDS011;51514;52.206;5.114;2024-02-23T06:14:21;13.18;;;6.60;;
64885;SDS011;51514;52.206;5.114;2024-02-23T06:16:48;10.50;;;5.32;;
64885;SDS011;51514;52.206;5.114;2024-02-23T06:19:14;9.52;;;5.78;;
64885;SDS011;51514;52.206;5.114;2024-02-23T06:21:39;16.98;;;6.03;;
64885;SDS011;51514;52.206;5.114;2024-02-23T06:24:04;9.07;;;5.43;;
64885;SDS011;51514;52.206;5.114;2024-02-23T06:26:30;9.77;;;5.00;;
64885;SDS011;51514;52.206;5.114;2024-02-23T06:28:55;10.95;;;5.25;;
64885;SDS011;51514;52.206;5.114;2024-02-23T06:31:21;11.00;;;4.85;;
64885;SDS011;51514;52.206;5.114;2024-02-23T06:33:46;11.52;;;4.90;;
64885;SDS011;51514;52.206;5.114;2024-02-23T06:36:16;12.27;;;4.80;;
64885;SDS011;51514;52.206;5.114;2024-02-23T06:38:41;12.82;;;4.60;;
64885;SDS011;51514;52.206;5.114;2024-02-23T06:41:06;6.40;;;4.00;;
64885;SDS011;51514;52.206;5.114;2024-02-23T06:43:33;6.97;;;3.53;;
64885;SDS011;51514;52.206;5.114;2024-02-23T06:46:03;8.15;;;4.50;;
64885;SDS011;51514;52.206;5.114;2024-02-23T06:48:29;9.18;;;4.78;;
64885;SDS011;51514;52.206;5.114;2024-02-23T06:50:54;10.05;;;4.68;;
64885;SDS011;51514;52.206;5.114;2024-02-23T06:53:20;10.88;;;3.95;;
64885;SDS011;51514;52.206;5.114;2024-02-23T06:55:45;8.52;;;4.07;;
64885;SDS011;51514;52.206;5.114;2024-02-23T06:58:10;7.78;;;3.88;;
64885;SDS011;51514;52.206;5.114;2024-02-23T07:00:36;7.05;;;4.45;;
64885;SDS011;51514;52.206;5.114;2024-02-23T07:03:01;12.38;;;4.32;;
64885;SDS011;51514;52.206;5.114;2024-02-23T07:05:28;10.02;;;4.30;;
64885;SDS011;51514;52.206;5.114;2024-02-23T07:07:54;8.88;;;4.20;;
64885;SDS011;51514;52.206;5.114;2024-02-23T07:10:19;9.25;;;4.70;;
64885;SDS011;51514;52.206;5.114;2024-02-23T07:12:47;9.10;;;4.22;;
64885;SDS011;51514;52.206;5.114;2024-02-23T07:15:12;14.23;;;3.78;;
64885;SDS011;51514;52.206;5.114;2024-02-23T07:17:37;7.35;;;3.30;;
64885;SDS011;51514;52.206;5.114;2024-02-23T07:20:03;7.03;;;4.03;;
64885;SDS011;51514;52.206;5.114;2024-02-23T07:22:31;9.18;;;3.75;;
64885;SDS011;51514;52.206;5.114;2024-02-23T07:24:57;7.35;;;4.35;;
64885;SDS011;51514;52.206;5.114;2024-02-23T07:27:22;10.20;;;4.13;;
64885;SDS011;51514;52.206;5.114;2024-02-23T07:29:47;10.73;;;3.85;;
64885;SDS011;51514;52.206;5.114;2024-02-23T07:32:13;9.25;;;3.78;;
64885;SDS011;51514;52.206;5.114;2024-02-23T07:34:38;11.55;;;3.58;;
64885;SDS011;51514;52.206;5.114;2024-02-23T07:37:03;12.95;;;3.03;;
64885;SDS011;51514;52.206;5.114;2024-02-23T07:39:29;9.45;;;3.80;;
64885;SDS011;51514;52.206;5.114;2024-02-23T07:41:54;7.22;;;3.83;;
64885;SDS011;51514;52.206;5.114;2024-02-23T07:44:20;9.43;;;3.53;;
64885;SDS011;51514;52.206;5.114;2024-02-23T07:46:45;6.40;;;3.45;;
64885;SDS011;51514;52.206;5.114;2024-02-23T07:49:13;10.23;;;3.65;;
64885;SDS011;51514;52.206;5.114;2024-02-23T07:51:38;8.90;;;2.83;;
64885;SDS011;51514;52.206;5.114;2024-02-23T07:54:04;10.48;;;3.30;;
64885;SDS011;51514;52.206;5.114;2024-02-23T07:56:30;12.95;;;2.92;;
64885;SDS011;51514;52.206;5.114;2024-02-23T07:58:55;7.72;;;3.00;;
64885;SDS011;51514;52.206;5.114;2024-02-23T08:01:21;7.68;;;3.55;;
64885;SDS011;51514;52.206;5.114;2024-02-23T08:03:46;6.97;;;2.65;;
64885;SDS011;51514;52.206;5.114;2024-02-23T08:06:12;12.55;;;2.58;;
64885;SDS011;51514;52.206;5.114;2024-02-23T08:08:38;9.57;;;3.10;;
64885;SDS011;51514;52.206;5.114;2024-02-23T08:11:03;11.55;;;2.75;;
64885;SDS011;51514;52.206;5.114;2024-02-23T08:13:29;7.50;;;3.03;;
64885;SDS011;51514;52.206;5.114;2024-02-23T08:15:54;11.10;;;3.75;;
64885;SDS011;51514;52.206;5.114;2024-02-23T08:18:20;9.75;;;3.80;;
64885;SDS011;51514;52.206;5.114;2024-02-23T08:20:47;9.57;;;3.03;;
64885;SDS011;51514;52.206;5.114;2024-02-23T08:23:13;11.60;;;3.05;;
64885;SDS011;51514;52.206;5.114;2024-02-23T08:25:38;10.88;;;3.42;;
64885;SDS011;51514;52.206;5.114;2024-02-23T08:28:04;6.80;;;2.80;;
64885;SDS011;51514;52.206;5.114;2024-02-23T08:30:29;10.15;;;2.75;;
64885;SDS011;51514;52.206;5.114;2024-02-23T08:32:54;12.63;;;2.90;;
64885;SDS011;51514;52.206;5.114;2024-02-23T08:35:20;11.60;;;3.05;;
64885;SDS011;51514;52.206;5.114;2024-02-23T08:37:45;9.05;;;3.53;;
64885;SDS011;51514;52.206;5.114;2024-02-23T08:40:11;9.52;;;3.45;;
64885;SDS011;51514;52.206;5.114;2024-02-23T08:42:37;9.93;;;3.40;;
64885;SDS011;51514;52.206;5.114;2024-02-23T08:45:02;13.18;;;4.53;;
64885;SDS011;51514;52.206;5.114;2024-02-23T08:47:29;15.40;;;3.38;;
64885;SDS011;51514;52.206;5.114;2024-02-23T08:49:58;12.45;;;3.80;;
64885;SDS011;51514;52.206;5.114;2024-02-23T08:52:23;9.32;;;3.50;;
64885;SDS011;51514;52.206;5.114;2024-02-23T08:54:48;7.95;;;3.28;;
64885;SDS011;51514;52.206;5.114;2024-02-23T08:57:14;14.25;;;4.35;;
64885;SDS011;51514;52.206;5.114;2024-02-23T08:59:44;10.18;;;4.20;;
64885;SDS011;51514;52.206;5.114;2024-02-23T09:02:10;7.47;;;3.20;;
64885;SDS011;51514;52.206;5.114;2024-02-23T09:04:35;11.98;;;3.45;;
64885;SDS011;51514;52.206;5.114;2024-02-23T09:07:01;10.25;;;4.00;;
64885;SDS011;51514;52.206;5.114;2024-02-23T09:09:26;13.48;;;3.60;;
64885;SDS011;51514;52.206;5.114;2024-02-23T09:11:52;12.68;;;3.83;;
64885;SDS011;51514;52.206;5.114;2024-02-23T09:14:17;10.07;;;3.38;;
64885;SDS011;51514;52.206;5.114;2024-02-23T09:16:43;11.65;;;3.60;;
64885;SDS011;51514;52.206;5.114;2024-02-23T09:19:08;12.05;;;3.42;;
64885;SDS011;51514;52.206;5.114;2024-02-23T09:21:33;12.82;;;3.65;;
64885;SDS011;51514;52.206;5.114;2024-02-23T09:23:59;11.40;;;3.40;;
64885;SDS011;51514;52.206;5.114;2024-02-23T09:26:24;11.90;;;3.60;;
64885;SDS011;51514;52.206;5.114;2024-02-23T09:28:49;12.70;;;3.85;;
64885;SDS011;51514;52.206;5.114;2024-02-23T09:31:15;12.20;;;3.45;;
64885;SDS011;51514;52.206;5.114;2024-02-23T09:33:40;15.98;;;3.60;;
64885;SDS011;51514;52.206;5.114;2024-02-23T09:36:06;8.45;;;4.40;;
64885;SDS011;51514;52.206;5.114;2024-02-23T09:38:31;10.05;;;4.00;;
64885;SDS011;51514;52.206;5.114;2024-02-23T09:40:57;6.32;;;3.17;;
64885;SDS011;51514;52.206;5.114;2024-02-23T09:43:23;8.18;;;3.53;;
64885;SDS011;51514;52.206;5.114;2024-02-23T09:45:54;10.40;;;3.08;;
64885;SDS011;51514;52.206;5.114;2024-02-23T09:48:20;6.72;;;3.45;;
64885;SDS011;51514;52.206;5.114;2024-02-23T09:50:47;7.03;;;3.55;;
64885;SDS011;51514;52.206;5.114;2024-02-23T09:53:13;9.18;;;3.47;;
64885;SDS011;51514;52.206;5.114;2024-02-23T09:55:39;7.85;;;2.88;;
64885;SDS011;51514;52.206;5.114;2024-02-23T09:58:04;9.80;;;3.20;;
64885;SDS011;51514;52.206;5.114;2024-02-23T10:00:33;7.93;;;2.97;;
64885;SDS011;51514;52.206;5.114;2024-02-23T10:03:01;8.70;;;3.08;;
64885;SDS011;51514;52.206;5.114;2024-02-23T10:05:29;11.55;;;3.55;;
64885;SDS011;51514;52.206;5.114;2024-02-23T10:07:55;8.90;;;3.10;;
64885;SDS011;51514;52.206;5.114;2024-02-23T10:10:24;11.02;;;4.55;;
64885;SDS011;51514;52.206;5.114;2024-02-23T10:12:54;9.00;;;3.33;;
64885;SDS011;51514;52.206;5.114;2024-02-23T10:15:19;9.05;;;3.63;;
64885;SDS011;51514;52.206;5.114;2024-02-23T10:17:45;5.70;;;3.00;;
64885;SDS011;51514;52.206;5.114;2024-02-23T10:20:10;10.63;;;3.20;;
64885;SDS011;51514;52.206;5.114;2024-02-23T10:22:36;7.40;;;3.15;;
64885;SDS011;51514;52.206;5.114;2024-02-23T10:25:01;8.57;;;3.40;;
64885;SDS011;51514;52.206;5.114;2024-02-23T10:27:27;7.35;;;3.25;;
64885;SDS011;51514;52.206;5.114;2024-02-23T10:29:52;9.65;;;2.92;;
64885;SDS011;51514;52.206;5.114;2024-02-23T10:32:19;11.35;;;3.35;;
64885;SDS011;51514;52.206;5.114;2024-02-23T10:34:47;5.93;;;2.92;;
64885;SDS011;51514;52.206;5.114;2024-02-23T10:37:14;13.88;;;3.88;;
64885;SDS011;51514;52.206;5.114;2024-02-23T10:39:40;9.38;;;3.78;;
64885;SDS011;51514;52.206;5.114;2024-02-23T10:42:07;8.07;;;2.90;;
64885;SDS011;51514;52.206;5.114;2024-02-23T10:44:34;10.95;;;3.40;;
64885;SDS011;51514;52.206;5.114;2024-02-23T10:47:01;5.63;;;2.88;;
64885;SDS011;51514;52.206;5.114;2024-02-23T10:49:29;6.35;;;2.97;;
64885;SDS011;51514;52.206;5.114;2024-02-23T10:51:55;7.80;;;3.83;;
64885;SDS011;51514;52.206;5.114;2024-02-23T10:54:21;6.13;;;3.00;;
64885;SDS011;51514;52.206;5.114;2024-02-23T10:56:48;14.02;;;4.05;;
64885;SDS011;51514;52.206;5.114;2024-02-23T10:59:15;7.93;;;3.80;;
64885;SDS011;51514;52.206;5.114;2024-02-23T11:01:44;6.18;;;2.97;;
64885;SDS011;51514;52.206;5.114;2024-02-23T11:04:14;8.20;;;3.17;;
64885;SDS011;51514;52.206;5.114;2024-02-23T11:06:41;7.07;;;3.10;;
64885;SDS011;51514;52.206;5.114;2024-02-23T11:09:07;10.55;;;3.60;;
64885;SDS011;51514;52.206;5.114;2024-02-23T11:11:37;6.45;;;3.22;;
64885;SDS011;51514;52.206;5.114;2024-02-23T11:14:03;7.60;;;3.30;;
64885;SDS011;51514;52.206;5.114;2024-02-23T11:16:32;10.15;;;3.30;;
64885;SDS011;51514;52.206;5.114;2024-02-23T11:19:03;8.40;;;4.18;;
64885;SDS011;51514;52.206;5.114;2024-02-23T11:21:33;5.30;;;3.25;;
64885;SDS011;51514;52.206;5.114;2024-02-23T11:24:02;10.05;;;3.78;;
64885;SDS011;51514;52.206;5.114;2024-02-23T11:26:28;9.75;;;3.53;;
64885;SDS011;51514;52.206;5.114;2024-02-23T11:28:53;8.77;;;3.13;;
64885;SDS011;51514;52.206;5.114;2024-02-23T11:31:19;7.82;;;3.42;;
64885;SDS011;51514;52.206;5.114;2024-02-23T11:33:53;10.13;;;3.40;;
64885;SDS011;51514;52.206;5.114;2024-02-23T11:38:58;7.85;;;3.10;;
64885;SDS011;51514;52.206;5.114;2024-02-23T11:41:25;8.27;;;3.38;;
64885;SDS011;51514;52.206;5.114;2024-02-23T11:43:52;5.45;;;3.28;;
64885;SDS011;51514;52.206;5.114;2024-02-23T11:46:20;8.65;;;3.17;;
64885;SDS011;51514;52.206;5.114;2024-02-23T11:48:46;5.95;;;3.10;;
64885;SDS011;51514;52.206;5.114;2024-02-23T11:51:14;5.20;;;2.80;;
64885;SDS011;51514;52.206;5.114;2024-02-23T11:53:40;4.57;;;2.92;;
64885;SDS011;51514;52.206;5.114;2024-02-23T11:56:06;5.38;;;3.38;;
64885;SDS011;51514;52.206;5.114;2024-02-23T11:58:32;7.82;;;3.38;;
64885;SDS011;51514;52.206;5.114;2024-02-23T12:00:58;7.38;;;3.33;;
64885;SDS011;51514;52.206;5.114;2024-02-23T12:03:30;8.68;;;3.05;;
64885;SDS011;51514;52.206;5.114;2024-02-23T12:05:59;5.38;;;2.50;;
64885;SDS011;51514;52.206;5.114;2024-02-23T12:08:29;7.18;;;3.15;;
64885;SDS011;51514;52.206;5.114;2024-02-23T12:11:02;5.57;;;2.80;;
64885;SDS011;51514;52.206;5.114;2024-02-23T12:13:33;7.60;;;3.13;;
64885;SDS011;51514;52.206;5.114;2024-02-23T12:15:59;5.55;;;2.60;;
64885;SDS011;51514;52.206;5.114;2024-02-23T12:18:25;9.32;;;2.92;;
64885;SDS011;51514;52.206;5.114;2024-02-23T12:21:06;6.63;;;3.08;;
64885;SDS011;51514;52.206;5.114;2024-02-23T12:26:05;9.57;;;3.08;;
64885;SDS011;51514;52.206;5.114;2024-02-23T12:28:30;7.18;;;2.83;;
64885;SDS011;51514;52.206;5.114;2024-02-23T12:31:02;9.63;;;2.63;;
64885;SDS011;51514;52.206;5.114;2024-02-23T12:33:29;8.85;;;2.35;;
64885;SDS011;51514;52.206;5.114;2024-02-23T12:35:56;6.53;;;3.15;;
64885;SDS011;51514;52.206;5.114;2024-02-23T12:38:23;10.95;;;2.78;;
64885;SDS011;51514;52.206;5.114;2024-02-23T12:40:49;6.60;;;2.15;;
64885;SDS011;51514;52.206;5.114;2024-02-23T12:43:14;8.00;;;2.55;;
64885;SDS011;51514;52.206;5.114;2024-02-23T12:45:40;4.80;;;2.10;;
64885;SDS011;51514;52.206;5.114;2024-02-23T12:48:05;6.60;;;2.40;;
64885;SDS011;51514;52.206;5.114;2024-02-23T12:50:31;11.27;;;3.47;;
64885;SDS011;51514;52.206;5.114;2024-02-23T12:52:56;8.57;;;2.80;;
64885;SDS011;51514;52.206;5.114;2024-02-23T12:55:22;4.53;;;2.42;;
64885;SDS011;51514;52.206;5.114;2024-02-23T12:57:48;7.07;;;2.05;;
64885;SDS011;51514;52.206;5.114;2024-02-23T13:00:14;6.10;;;2.40;;
64885;SDS011;51514;52.206;5.114;2024-02-23T13:02:39;8.70;;;2.20;;
64885;SDS011;51514;52.206;5.114;2024-02-23T13:05:05;9.63;;;2.30;;
64885;SDS011;51514;52.206;5.114;2024-02-23T13:07:30;9.95;;;2.38;;
64885;SDS011;51514;52.206;5.114;2024-02-23T13:09:56;8.02;;;2.63;;
64885;SDS011;51514;52.206;5.114;2024-02-23T13:12:21;4.68;;;2.38;;
64885;SDS011;51514;52.206;5.114;2024-02-23T13:14:46;7.22;;;2.17;;
64885;SDS011;51514;52.206;5.114;2024-02-23T13:17:12;5.38;;;2.30;;
64885;SDS011;51514;52.206;5.114;2024-02-23T13:19:37;10.38;;;3.38;;
64885;SDS011;51514;52.206;5.114;2024-02-23T13:22:02;9.55;;;2.70;;
64885;SDS011;51514;52.206;5.114;2024-02-23T13:24:28;7.38;;;2.78;;
64885;SDS011;51514;52.206;5.114;2024-02-23T13:26:53;6.60;;;2.42;;
64885;SDS011;51514;52.206;5.114;2024-02-23T13:29:19;8.13;;;2.63;;
64885;SDS011;51514;52.206;5.114;2024-02-23T13:31:45;10.15;;;2.97;;
64885;SDS011;51514;52.206;5.114;2024-02-23T13:34:11;10.00;;;3.60;;
64885;SDS011;51514;52.206;5.114;2024-02-23T13:36:37;8.18;;;2.85;;
64885;SDS011;51514;52.206;5.114;2024-02-23T13:39:03;6.88;;;2.35;;
64885;SDS011;51514;52.206;5.114;2024-02-23T13:41:29;6.47;;;2.50;;
64885;SDS011;51514;52.206;5.114;2024-02-23T13:43:54;6.82;;;2.28;;
64885;SDS011;51514;52.206;5.114;2024-02-23T13:46:20;7.40;;;2.90;;
64885;SDS011;51514;52.206;5.114;2024-02-23T13:48:45;6.53;;;2.05;;
64885;SDS011;51514;52.206;5.114;2024-02-23T13:51:11;6.47;;;2.10;;
64885;SDS011;51514;52.206;5.114;2024-02-23T13:53:36;5.75;;;2.03;;
64885;SDS011;51514;52.206;5.114;2024-02-23T13:56:02;5.22;;;2.30;;
64885;SDS011;51514;52.206;5.114;2024-02-23T13:58:28;6.13;;;2.30;;
64885;SDS011;51514;52.206;5.114;2024-02-23T14:00:54;4.22;;;1.90;;
64885;SDS011;51514;52.206;5.114;2024-02-23T14:03:19;6.88;;;2.13;;
64885;SDS011;51514;52.206;5.114;2024-02-23T14:05:46;5.22;;;1.83;;
64885;SDS011;51514;52.206;5.114;2024-02-23T14:08:12;7.68;;;1.90;;
64885;SDS011;51514;52.206;5.114;2024-02-23T14:10:38;5.55;;;2.00;;
64885;SDS011;51514;52.206;5.114;2024-02-23T14:13:04;5.38;;;1.60;;
64885;SDS011;51514;52.206;5.114;2024-02-23T14:15:30;3.80;;;2.33;;
64885;SDS011;51514;52.206;5.114;2024-02-23T14:17:55;3.55;;;1.70;;
64885;SDS011;51514;52.206;5.114;2024-02-23T14:20:21;7.30;;;1.83;;
64885;SDS011;51514;52.206;5.114;2024-02-23T14:22:46;3.78;;;1.90;;
64885;SDS011;51514;52.206;5.114;2024-02-23T14:25:12;5.55;;;1.90;;
64885;SDS011;51514;52.206;5.114;2024-02-23T14:27:37;4.93;;;2.10;;
64885;SDS011;51514;52.206;5.114;2024-02-23T14:30:03;5.50;;;1.95;;
64885;SDS011;51514;52.206;5.114;2024-02-23T14:32:29;3.63;;;1.90;;
64885;SDS011;51514;52.206;5.114;2024-02-23T14:34:54;5.45;;;2.00;;
64885;SDS011;51514;52.206;5.114;2024-02-23T14:37:20;2.75;;;1.70;;
64885;SDS011;51514;52.206;5.114;2024-02-23T14:39:45;3.88;;;1.90;;